Time;durP1;ratioP1;P1;durP2;ratioP2;P2;SDS_P1;SDS_P2;PMS_P1;PMS_P2;Temp;Humidity;BMP_temperature;BMP_pressure;BME280_temperature;BME280_humidity;BME280_pressure;Samples;Min_cycle;Max_cycle;Signal;HPM_P1;HPM_P2
2021/01/14 00:00:26;;;;;;;8.78;7.37;;;;;;;8.48;47.90;98330.11;1811967;78;21154;-70
2021/01/14 00:02:53;;;;;;;8.78;7.00;;;;;;;8.48;47.86;98336.73;1815376;78;21071;-68
2021/01/14 00:05:21;;;;;;;8.75;6.65;;;;;;;8.47;47.92;98335.92;1819653;78;21127;-68
2021/01/14 00:07:49;;;;;;;8.98;7.40;;;;;;;8.47;47.90;98330.63;1812145;78;21523;-68
2021/01/14 00:10:17;;;;;;;8.55;7.58;;;;;;;8.46;47.88;98327.69;1810391;78;21793;-69
2021/01/14 00:12:44;;;;;;;9.68;7.53;;;;;;;8.45;47.88;98324.70;1818748;78;21166;-69
2021/01/14 00:15:14;;;;;;;9.40;7.67;;;;;;;8.45;47.86;98320.73;1816145;78;21186;-68
2021/01/14 00:17:42;;;;;;;9.98;7.25;;;;;;;8.45;47.86;98319.41;1815829;78;21159;-70
2021/01/14 00:20:13;;;;;;;8.25;7.08;;;;;;;8.45;47.86;98324.19;1815560;78;21176;-69
2021/01/14 00:22:41;;;;;;;9.05;8.05;;;;;;;8.45;47.83;98323.38;1823352;78;21590;-69
2021/01/14 00:25:10;;;;;;;8.78;7.28;;;;;;;8.44;47.83;98324.37;1823400;78;21194;-69
2021/01/14 00:27:38;;;;;;;10.88;7.67;;;;;;;8.44;47.84;98324.37;1823690;78;21146;-68
2021/01/14 00:30:23;;;;;;;9.55;7.75;;;;;;;8.44;47.84;98319.09;1817992;78;21139;-70
2021/01/14 00:32:50;;;;;;;8.95;7.53;;;;;;;8.43;47.80;98327.53;1805050;78;21147;-69
2021/01/14 00:35:17;;;;;;;9.10;7.40;;;;;;;8.43;47.81;98322.24;1813657;78;23602;-67
2021/01/14 00:37:50;;;;;;;10.23;8.05;;;;;;;8.38;47.84;98323.78;1817884;78;21205;-68
2021/01/14 00:40:22;;;;;;;8.75;7.12;;;;;;;8.42;47.82;98330.36;1820026;77;26856;-68
2021/01/14 00:45:47;;;;;;;9.45;7.22;;;;;;;8.45;47.83;98314.94;1826800;77;28225;-67
2021/01/14 00:48:13;;;;;;;9.15;7.08;;;;;;;8.40;47.80;98321.28;1775481;79;21206;-68
2021/01/14 00:50:41;;;;;;;9.53;7.65;;;;;;;8.40;47.80;98316.47;1782136;77;21500;-68
2021/01/14 00:53:08;;;;;;;9.73;8.03;;;;;;;8.39;47.79;98318.30;1782687;79;21054;-67
2021/01/14 00:55:36;;;;;;;9.30;7.33;;;;;;;8.39;47.78;98313.02;1786350;79;21122;-67
2021/01/14 00:58:03;;;;;;;8.65;7.28;;;;;;;8.38;47.78;98311.88;1777833;79;21132;-68
2021/01/14 01:00:30;;;;;;;9.00;8.08;;;;;;;8.39;47.77;98313.02;1797131;77;21161;-68
2021/01/14 01:02:59;;;;;;;10.00;8.13;;;;;;;8.39;47.76;98316.17;1791170;79;21129;-67
2021/01/14 01:05:26;;;;;;;10.20;7.85;;;;;;;8.39;47.76;98324.11;1792808;79;21926;-67
2021/01/14 01:08:00;;;;;;;8.60;7.15;;;;;;;8.39;47.76;98330.73;1787786;79;21177;-68
2021/01/14 01:10:27;;;;;;;9.73;8.00;;;;;;;8.38;47.78;98328.59;1788074;79;21168;-68
2021/01/14 01:12:56;;;;;;;11.18;7.58;;;;;;;8.37;47.75;98324.30;1799274;79;21230;-67
2021/01/14 01:15:25;;;;;;;8.78;7.05;;;;;;;8.36;47.74;98315.22;1800686;79;21381;-67
2021/01/14 01:17:52;;;;;;;7.97;6.65;;;;;;;8.36;47.75;98320.00;1802117;79;21174;-67
2021/01/14 01:20:19;;;;;;;8.90;7.78;;;;;;;8.35;47.73;98326.83;1792278;79;21457;-67
2021/01/14 01:22:47;;;;;;;9.08;7.42;;;;;;;8.35;47.71;98328.95;1794153;79;21182;-69
2021/01/14 01:25:14;;;;;;;9.15;7.60;;;;;;;8.34;47.71;98325.98;1786289;79;21153;-69
2021/01/14 01:27:42;;;;;;;9.40;7.60;;;;;;;8.35;47.72;98326.31;1783572;79;21250;-69
2021/01/14 01:30:11;;;;;;;9.70;7.78;;;;;;;8.35;47.69;98323.66;1779127;79;21184;-69
2021/01/14 01:32:39;;;;;;;9.68;8.10;;;;;;;8.36;47.70;98325.80;1789149;78;21821;-70
2021/01/14 01:35:08;;;;;;;8.08;7.03;;;;;;;8.36;47.71;98329.26;1794717;79;21138;-69
2021/01/14 01:37:36;;;;;;;10.75;8.08;;;;;;;8.36;47.70;98326.61;1782042;80;21163;-69
2021/01/14 01:40:07;;;;;;;9.43;7.72;;;;;;;8.35;47.68;98327.64;1788606;78;21198;-69
2021/01/14 01:42:34;;;;;;;9.68;7.75;;;;;;;8.35;47.66;98336.89;1788407;78;21181;-69
2021/01/14 01:45:03;;;;;;;10.30;8.05;;;;;;;8.34;47.66;98337.08;1789343;78;21138;-69
2021/01/14 01:47:33;;;;;;;9.55;7.60;;;;;;;8.34;47.65;98335.75;1810517;78;21177;-68
2021/01/14 01:50:03;;;;;;;9.50;7.67;;;;;;;8.34;47.65;98334.44;1786863;79;21137;-68
2021/01/14 01:52:34;;;;;;;11.33;8.60;;;;;;;8.34;47.64;98337.89;1797048;79;21455;-68
2021/01/14 01:55:03;;;;;;;10.13;8.08;;;;;;;8.33;47.67;98328.84;1795205;79;21181;-68
2021/01/14 01:57:31;;;;;;;10.43;8.03;;;;;;;8.33;47.63;98330.16;1799412;78;21163;-68
2021/01/14 01:59:59;;;;;;;9.58;7.78;;;;;;;8.32;47.66;98330.64;1792079;78;21113;-67
2021/01/14 02:02:27;;;;;;;11.93;8.35;;;;;;;8.32;47.68;98329.32;1789409;79;21191;-68
2021/01/14 02:04:55;;;;;;;11.63;8.65;;;;;;;8.31;47.64;98329.02;1787475;79;21379;-69
2021/01/14 02:08:11;;;;;;;10.13;8.15;;;;;;;8.31;47.64;98332.18;1814002;79;21114;-68
2021/01/14 02:10:56;;;;;;;10.63;8.25;;;;;;;8.31;47.62;98327.70;1791530;79;21174;-70
2021/01/14 02:13:59;;;;;;;10.85;8.55;;;;;;;8.27;47.64;98324.61;1809899;79;21081;-69
2021/01/14 02:16:27;;;;;;;11.90;9.00;;;;;;;8.27;47.69;98323.80;1796367;79;21193;-68
2021/01/14 02:18:55;;;;;;;12.58;9.03;;;;;;;8.25;47.74;98329.78;1795896;79;22297;-68
2021/01/14 02:21:24;;;;;;;13.65;9.60;;;;;;;8.23;47.74;98337.89;1789229;79;21128;-68
2021/01/14 02:24:22;;;;;;;10.70;8.58;;;;;;;8.25;47.71;98340.36;1787293;79;21146;-67
2021/01/14 02:28:45;;;;;;;11.63;8.75;;;;;;;8.28;47.72;98342.61;1821209;76;27427;-67
2021/01/14 02:31:14;;;;;;;10.53;8.65;;;;;;;8.19;47.80;98342.41;1797439;77;21129;-68
2021/01/14 02:33:42;;;;;;;10.78;8.75;;;;;;;8.19;47.77;98344.57;1757348;78;21359;-69
2021/01/14 02:36:11;;;;;;;10.68;8.53;;;;;;;8.20;47.79;98347.52;1786898;77;21039;-69
2021/01/14 02:38:41;;;;;;;13.08;9.80;;;;;;;8.21;47.78;98337.78;1798507;78;21622;-67
2021/01/14 02:41:08;;;;;;;11.30;9.43;;;;;;;8.22;47.76;98335.44;1785304;77;21129;-68
2021/01/14 02:43:36;;;;;;;11.63;9.08;;;;;;;8.22;47.73;98336.24;1799807;78;21613;-69
2021/01/14 02:46:05;;;;;;;10.55;9.08;;;;;;;8.22;47.71;98330.95;1789989;78;21229;-69
2021/01/14 02:48:37;;;;;;;12.05;9.83;;;;;;;8.23;47.69;98326.50;1792410;77;21197;-69
2021/01/14 02:51:07;;;;;;;10.13;8.93;;;;;;;8.24;47.65;98318.87;1788994;78;21198;-68
2021/01/14 02:53:35;;;;;;;14.68;10.18;;;;;;;8.26;47.65;98319.50;1789112;79;21515;-68
2021/01/14 02:56:04;;;;;;;12.30;9.40;;;;;;;8.25;47.63;98313.39;1778789;77;21590;-67
2021/01/14 02:58:33;;;;;;;13.62;10.45;;;;;;;8.24;47.65;98316.22;1728242;79;21703;-69
2021/01/14 03:01:01;;;;;;;12.58;10.50;;;;;;;8.26;47.62;98312.88;1779763;78;21205;-70
2021/01/14 03:03:28;;;;;;;12.68;9.88;;;;;;;8.25;47.58;98308.61;1776836;78;21161;-69
2021/01/14 03:05:56;;;;;;;12.03;9.55;;;;;;;8.26;47.60;98310.23;1790533;78;21146;-68
2021/01/14 03:08:24;;;;;;;13.45;10.58;;;;;;;8.26;47.59;98316.85;1797700;78;21223;-68
2021/01/14 03:10:51;;;;;;;13.62;10.98;;;;;;;8.26;47.59;98320.81;1771587;79;21697;-69
2021/01/14 03:13:18;;;;;;;13.98;10.75;;;;;;;8.25;47.59;98320.01;1776927;79;21161;-68
2021/01/14 03:15:45;;;;;;;13.83;10.95;;;;;;;8.26;47.59;98313.69;1790816;78;21150;-68
2021/01/14 03:18:13;;;;;;;13.60;10.45;;;;;;;8.26;47.57;98312.37;1783510;78;21702;-67
2021/01/14 03:20:41;;;;;;;15.72;11.12;;;;;;;8.27;47.57;98315.34;1787610;79;21559;-68
2021/01/14 03:23:09;;;;;;;12.95;10.53;;;;;;;8.27;47.52;98318.50;1773857;78;21598;-69
2021/01/14 03:25:37;;;;;;;13.68;11.50;;;;;;;8.27;47.54;98318.50;1776244;79;21174;-68
2021/01/14 03:28:05;;;;;;;13.25;10.48;;;;;;;8.27;47.52;98315.34;1789835;78;21115;-69
2021/01/14 03:30:32;;;;;;;15.58;11.28;;;;;;;8.27;47.51;98315.34;1789623;77;21175;-70
2021/01/14 03:33:01;;;;;;;14.13;11.12;;;;;;;8.28;47.50;98317.48;1748754;80;21121;-68
2021/01/14 03:35:29;;;;;;;14.55;11.35;;;;;;;8.27;47.48;98324.61;1745985;81;21204;-67
2021/01/14 03:37:56;;;;;;;16.05;12.23;;;;;;;8.28;47.47;98325.42;1752374;80;21236;-68
2021/01/14 03:40:24;;;;;;;15.32;12.00;;;;;;;8.27;47.46;98319.83;1757829;81;22095;-68
2021/01/14 03:42:51;;;;;;;13.90;11.73;;;;;;;8.28;47.49;98321.45;1749092;81;21175;-69
2021/01/14 03:45:19;;;;;;;15.05;12.28;;;;;;;8.27;47.49;98319.83;1768589;80;21103;-68
2021/01/14 03:47:46;;;;;;;14.28;11.45;;;;;;;8.27;47.48;98318.50;1767284;80;23515;-68
2021/01/14 03:50:13;;;;;;;14.25;11.80;;;;;;;8.28;47.47;98323.58;1772573;80;21161;-69
2021/01/14 03:52:41;;;;;;;15.88;11.78;;;;;;;8.27;47.47;98323.80;1767571;80;21635;-68
2021/01/14 03:55:11;;;;;;;15.58;11.43;;;;;;;8.27;47.46;98321.95;1793568;78;21211;-69
2021/01/14 03:57:39;;;;;;;16.10;13.20;;;;;;;8.27;47.44;98322.47;1800923;78;21141;-67
2021/01/14 04:00:10;;;;;;;15.30;12.10;;;;;;;8.27;47.47;98323.80;1795832;78;21251;-69
2021/01/14 04:02:40;;;;;;;16.15;12.68;;;;;;;8.27;47.46;98319.31;1806328;78;21150;-69
2021/01/14 04:05:09;;;;;;;14.50;11.90;;;;;;;8.27;47.44;98317.18;1787795;78;21125;-68
2021/01/14 04:07:37;;;;;;;15.25;12.85;;;;;;;8.27;47.43;98321.15;1807729;78;21539;-69
2021/01/14 04:10:06;;;;;;;16.93;12.88;;;;;;;8.26;47.42;98315.02;1801830;78;21142;-69
2021/01/14 04:12:33;;;;;;;15.95;13.30;;;;;;;8.27;47.42;98317.99;1797753;77;21367;-68
2021/01/14 04:15:01;;;;;;;15.53;12.18;;;;;;;8.26;47.40;98313.69;1819297;78;21118;-69
2021/01/14 04:17:28;;;;;;;16.42;12.82;;;;;;;8.27;47.43;98315.34;1800045;77;21190;-69
2021/01/14 04:19:56;;;;;;;15.18;12.75;;;;;;;8.27;47.42;98315.34;1775245;80;21135;-69
2021/01/14 04:22:23;;;;;;;15.78;12.43;;;;;;;8.26;47.42;98313.69;1774913;80;21118;-69
2021/01/14 04:24:51;;;;;;;16.73;12.03;;;;;;;8.27;47.42;98318.50;1774388;80;21677;-69
2021/01/14 04:27:20;;;;;;;15.70;12.20;;;;;;;8.27;47.42;98326.44;1788607;78;21281;-70
2021/01/14 04:29:47;;;;;;;13.62;11.50;;;;;;;8.27;47.43;98322.47;1796773;78;21114;-69
2021/01/14 04:32:15;;;;;;;15.85;12.55;;;;;;;8.27;47.40;98323.80;1816807;77;21138;-69
2021/01/14 04:34:43;;;;;;;15.15;11.70;;;;;;;8.26;47.41;98326.92;1816095;77;21103;-69
2021/01/14 04:37:10;;;;;;;12.60;10.72;;;;;;;8.26;47.35;98323.46;1819680;78;21504;-69
2021/01/14 04:39:39;;;;;;;16.17;13.00;;;;;;;8.27;47.35;98319.83;1804292;78;21522;-68
2021/01/14 04:42:06;;;;;;;14.70;11.25;;;;;;;8.26;47.35;98324.78;1801093;78;21078;-68
2021/01/14 04:44:34;;;;;;;13.75;11.28;;;;;;;8.26;47.37;98328.76;1758620;78;21173;-67
2021/01/14 04:47:05;;;;;;;15.48;11.97;;;;;;;8.26;47.36;98332.21;1799941;78;21091;-68
2021/01/14 04:49:33;;;;;;;14.15;12.43;;;;;;;8.26;47.34;98332.72;1806430;78;21462;-69
2021/01/14 04:52:04;;;;;;;17.27;12.45;;;;;;;8.26;47.36;98328.76;1799864;77;21133;-68
2021/01/14 04:54:34;;;;;;;14.60;11.40;;;;;;;8.26;47.35;98329.56;1797930;77;21146;-68
2021/01/14 04:57:17;;;;;;;14.75;11.97;;;;;;;8.26;47.33;98325.59;1797156;78;21552;-69
2021/01/14 04:59:34;;;;;;;16.23;12.85;;;;;;;8.25;47.33;98327.95;1800332;78;21160;-70
2021/01/14 05:02:02;;;;;;;15.63;12.47;;;;;;;8.24;47.31;98325.48;1799853;78;21420;-67
2021/01/14 05:04:30;;;;;;;17.40;12.30;;;;;;;8.23;47.34;98322.02;1769358;78;21130;-68
2021/01/14 05:06:58;;;;;;;15.40;12.47;;;;;;;8.23;47.31;98322.02;1810559;77;21590;-68
2021/01/14 05:09:26;;;;;;;16.37;12.05;;;;;;;8.24;47.31;98321.52;1816178;77;21169;-68
2021/01/14 05:11:57;;;;;;;15.35;12.20;;;;;;;8.24;47.33;98321.52;1812226;78;21138;-68
2021/01/14 05:14:25;;;;;;;14.00;11.80;;;;;;;8.25;47.30;98319.20;1795577;78;21361;-67
2021/01/14 05:16:52;;;;;;;14.98;12.05;;;;;;;8.25;47.30;98323.16;1810435;77;21155;-67
2021/01/14 05:19:20;;;;;;;15.35;12.05;;;;;;;8.23;47.28;98307.98;1824728;78;21391;-68
2021/01/14 05:21:47;;;;;;;16.17;12.98;;;;;;;8.23;47.31;98318.56;1807155;78;21185;-70
2021/01/14 05:24:16;;;;;;;15.72;12.75;;;;;;;8.24;47.33;98316.22;1816467;77;21125;-69
2021/01/14 05:26:46;;;;;;;14.93;12.18;;;;;;;8.23;47.31;98311.95;1800405;78;21367;-70
2021/01/14 05:29:18;;;;;;;14.18;12.13;;;;;;;8.25;47.29;98315.23;1803757;78;21054;-69
2021/01/14 05:31:48;;;;;;;14.85;12.55;;;;;;;8.24;47.30;98317.55;1811356;77;21157;-69
2021/01/14 05:34:15;;;;;;;15.08;12.75;;;;;;;8.23;47.30;98315.92;1817343;77;21189;-68
2021/01/14 05:37:03;;;;;;;15.75;12.73;;;;;;;8.23;47.30;98322.53;1803019;77;21171;-68
2021/01/14 05:39:31;;;;;;;14.07;11.33;;;;;;;8.23;47.29;98322.53;1805859;78;21201;-68
2021/01/14 05:41:58;;;;;;;14.13;11.75;;;;;;;8.22;47.31;98320.38;1818921;77;21146;-67
2021/01/14 05:44:37;;;;;;;16.90;12.70;;;;;;;8.23;47.31;98321.22;1772644;78;21114;-69
2021/01/14 05:47:25;;;;;;;14.47;11.38;;;;;;;8.23;47.30;98318.56;1808347;78;21107;-69
2021/01/14 05:50:05;;;;;;;16.50;11.78;;;;;;;8.22;47.32;98322.20;1797292;78;21164;-68
2021/01/14 05:52:33;;;;;;;14.50;11.80;;;;;;;8.21;47.32;98329.33;1809128;78;21334;-70
2021/01/14 05:55:06;;;;;;;14.35;11.75;;;;;;;8.20;47.32;98329.00;1821778;77;21173;-68
2021/01/14 05:57:36;;;;;;;15.20;12.47;;;;;;;8.20;47.32;98328.19;1809152;78;21122;-69
2021/01/14 06:00:13;;;;;;;14.60;11.95;;;;;;;8.20;47.33;98329.52;1796753;77;22020;-70
2021/01/14 06:02:41;;;;;;;15.63;12.10;;;;;;;8.20;47.34;98340.09;1804686;78;21165;-68
2021/01/14 06:05:33;;;;;;;15.55;12.03;;;;;;;8.20;47.34;98337.45;1799416;78;21338;-68
2021/01/14 06:08:01;;;;;;;17.75;13.35;;;;;;;8.20;47.33;98340.09;1803929;78;21980;-68
2021/01/14 06:10:32;;;;;;;12.80;10.65;;;;;;;8.18;47.34;98334.98;1798607;78;21590;-69
2021/01/14 06:12:59;;;;;;;16.37;13.08;;;;;;;8.19;47.37;98334.47;1798950;77;21098;-69
2021/01/14 06:15:26;;;;;;;14.83;12.03;;;;;;;8.19;47.34;98339.28;1808678;78;21426;-68
2021/01/14 06:17:54;;;;;;;13.98;11.55;;;;;;;8.19;47.34;98330.50;1801088;78;21620;-67
2021/01/14 06:20:21;;;;;;;15.65;12.78;;;;;;;8.19;47.33;98331.34;1797210;78;21546;-69
2021/01/14 06:22:48;;;;;;;15.78;12.50;;;;;;;8.19;47.34;98328.70;1811242;78;21276;-68
2021/01/14 06:25:16;;;;;;;15.83;13.00;;;;;;;8.20;47.33;98330.32;1795940;78;21154;-69
2021/01/14 06:27:54;;;;;;;15.35;12.07;;;;;;;8.20;47.30;98323.70;1763967;80;21148;-68
2021/01/14 06:30:22;;;;;;;15.83;12.18;;;;;;;8.21;47.30;98327.20;1728410;81;21318;-70
2021/01/14 06:33:02;;;;;;;16.90;13.25;;;;;;;8.21;47.30;98328.52;1753657;81;21158;-68
2021/01/14 06:35:30;;;;;;;15.30;12.15;;;;;;;8.21;47.29;98329.84;1734615;81;21740;-68
2021/01/14 06:38:03;;;;;;;15.00;12.45;;;;;;;8.20;47.29;98330.32;1768515;79;21186;-68
2021/01/14 06:40:30;;;;;;;14.83;12.20;;;;;;;8.21;47.28;98325.88;1742793;79;21170;-68
2021/01/14 06:42:58;;;;;;;15.93;12.40;;;;;;;8.21;47.26;98327.20;1772559;79;21323;-70
2021/01/14 06:45:31;;;;;;;17.20;12.90;;;;;;;8.21;47.26;98323.23;1774159;77;21839;-69
2021/01/14 06:48:05;;;;;;;17.55;13.13;;;;;;;8.22;47.25;98330.14;1784956;79;21158;-68
2021/01/14 06:50:32;;;;;;;15.43;12.68;;;;;;;8.22;47.28;98334.11;1770168;77;22168;-68
2021/01/14 06:53:05;;;;;;;15.75;12.65;;;;;;;8.22;47.28;98330.14;1791149;79;21186;-69
2021/01/14 06:55:36;;;;;;;16.20;12.70;;;;;;;8.22;47.25;98329.63;1789203;79;21194;-70
2021/01/14 06:58:19;;;;;;;16.82;12.95;;;;;;;8.22;47.24;98338.08;1779390;77;21158;-69
2021/01/14 07:00:48;;;;;;;15.43;12.88;;;;;;;8.22;47.25;98343.38;1801473;79;21147;-69
2021/01/14 07:03:24;;;;;;;16.20;11.90;;;;;;;8.22;47.27;98345.50;1770863;79;21111;-68
2021/01/14 07:06:01;;;;;;;16.45;13.35;;;;;;;8.22;47.27;98341.53;1765896;77;21623;-69
2021/01/14 07:08:57;;;;;;;17.85;13.72;;;;;;;8.22;47.31;98344.69;1781031;79;21435;-65
2021/01/14 07:11:25;;;;;;;16.15;12.47;;;;;;;8.22;47.95;98343.38;1768527;77;21167;-69
2021/01/14 07:13:53;;;;;;;17.12;13.13;;;;;;;8.22;48.21;98346.02;1784653;77;21150;-68
2021/01/14 07:16:25;;;;;;;18.45;14.50;;;;;;;8.23;48.21;98351.64;1777363;79;21143;-68
2021/01/14 07:18:52;;;;;;;17.90;13.48;;;;;;;8.26;48.20;98356.53;1779665;77;21575;-68
2021/01/14 07:21:39;;;;;;;17.27;13.68;;;;;;;8.27;48.12;98354.22;1783672;77;22369;-66
2021/01/14 07:24:22;;;;;;;17.05;13.15;;;;;;;8.28;48.10;98351.88;1764353;79;21225;-66
2021/01/14 07:26:58;;;;;;;15.60;13.05;;;;;;;8.29;48.02;98348.23;1778703;79;21620;-67
2021/01/14 07:32:06;;;;;;;16.05;13.60;;;;;;;8.33;47.95;98358.76;1764250;80;28277;-66
2021/01/14 07:34:46;;;;;;;16.87;13.75;;;;;;;8.31;47.87;98359.45;1796365;78;21153;-67
2021/01/14 07:37:17;;;;;;;18.52;13.53;;;;;;;8.31;47.85;98361.28;1795047;78;21212;-66
2021/01/14 07:39:58;;;;;;;20.27;14.83;;;;;;;8.32;47.83;98358.43;1800434;78;21564;-67
2021/01/14 07:42:30;;;;;;;18.52;14.00;;;;;;;8.34;47.81;98357.73;1803024;78;21159;-67
2021/01/14 07:45:01;;;;;;;16.17;13.05;;;;;;;8.34;47.77;98358.25;1801467;78;21119;-66
2021/01/14 07:47:35;;;;;;;16.90;13.75;;;;;;;8.35;47.73;98355.42;1808445;78;21199;-65
2021/01/14 07:50:23;;;;;;;;;;;;;;;8.35;47.69;98354.09;1771423;80;23450;-65
2021/01/14 07:52:52;;;;;;;16.65;13.05;;;;;;;8.37;47.66;98361.34;1716544;82;20254;-65
2021/01/14 07:55:31;;;;;;;16.25;13.38;;;;;;;8.30;47.75;98361.77;1764047;80;21046;-66
2021/01/14 07:58:21;;;;;;;18.30;13.88;;;;;;;8.33;47.74;98359.27;1722998;81;21201;-64
2021/01/14 08:01:07;;;;;;;17.90;14.15;;;;;;;8.35;47.67;98363.36;1756150;81;21135;-66
2021/01/14 08:03:39;;;;;;;15.80;13.18;;;;;;;8.36;47.65;98366.30;1742276;81;21209;-65
2021/01/14 08:06:22;;;;;;;18.37;14.10;;;;;;;8.38;47.64;98373.58;1765617;80;21147;-65
2021/01/14 08:09:09;;;;;;;16.48;13.05;;;;;;;8.39;47.62;98371.23;1765169;80;21147;-68
2021/01/14 08:11:37;;;;;;;17.15;14.53;;;;;;;8.40;47.58;98374.69;1738639;81;21163;-64
2021/01/14 08:14:22;;;;;;;16.70;13.32;;;;;;;8.42;47.55;98375.35;1756152;80;21182;-66
2021/01/14 08:16:54;;;;;;;20.72;15.28;;;;;;;8.43;47.54;98377.01;1760581;80;21420;-68
2021/01/14 08:19:32;;;;;;;19.65;14.78;;;;;;;8.43;47.50;98372.52;1765232;80;21596;-69
2021/01/14 08:22:09;;;;;;;17.80;13.93;;;;;;;8.46;47.51;98379.30;1776936;80;21170;-66
2021/01/14 08:24:56;;;;;;;16.02;13.43;;;;;;;8.47;47.46;98386.20;1763226;80;21603;-66
2021/01/14 08:27:38;;;;;;;16.50;13.25;;;;;;;8.48;47.42;98391.83;1770465;80;21165;-66
2021/01/14 08:30:20;;;;;;;17.45;13.50;;;;;;;8.50;47.40;98390.30;1765510;80;21607;-65
2021/01/14 08:33:04;;;;;;;17.67;12.88;;;;;;;8.50;47.39;98388.97;1768394;80;21140;-64
2021/01/14 08:35:36;;;;;;;17.40;13.32;;;;;;;8.51;47.37;98393.27;1750337;80;21139;-66
2021/01/14 08:38:15;;;;;;;17.62;13.45;;;;;;;8.52;47.37;98393.57;1736651;81;21596;-65
2021/01/14 08:40:43;;;;;;;18.23;14.43;;;;;;;8.52;47.31;98392.25;1762138;79;21148;-66
2021/01/14 08:45:55;;;;;;;16.45;12.65;;;;;;;8.57;47.30;98387.22;1830896;77;27200;-63
2021/01/14 08:48:32;;;;;;;18.07;14.13;;;;;;;8.55;47.24;98397.18;1786830;79;21141;-64
2021/01/14 08:51:03;;;;;;;15.88;12.80;;;;;;;8.55;47.22;98391.38;1817541;78;22374;-64
2021/01/14 08:53:36;;;;;;;17.32;14.15;;;;;;;8.55;47.21;98387.91;1812152;78;21103;-64
2021/01/14 08:56:17;;;;;;;17.82;13.60;;;;;;;8.56;47.21;98390.38;1788693;79;21670;-65
2021/01/14 08:58:45;;;;;;;19.23;13.78;;;;;;;8.55;47.22;98378.14;1801876;78;21176;-63
2021/01/14 09:01:24;;;;;;;17.37;13.70;;;;;;;8.55;47.20;98383.95;1809158;79;21241;-64
2021/01/14 09:03:54;;;;;;;16.55;14.40;;;;;;;8.56;47.21;98378.98;1788090;78;21646;-65
2021/01/14 09:06:38;;;;;;;16.95;13.43;;;;;;;8.55;47.20;98382.11;1785412;79;20964;-66
2021/01/14 09:09:09;;;;;;;16.35;12.88;;;;;;;8.56;47.19;98377.14;1788742;79;21027;-65
2021/01/14 09:11:36;;;;;;;18.87;13.90;;;;;;;8.57;47.20;98376.63;1798412;78;21170;-65
2021/01/14 09:14:06;;;;;;;16.82;14.03;;;;;;;8.57;47.19;98375.31;1792102;78;21243;-65
2021/01/14 09:16:34;;;;;;;17.65;14.23;;;;;;;8.58;47.18;98375.64;1797158;79;21426;-65
2021/01/14 09:19:17;;;;;;;16.75;13.48;;;;;;;8.59;47.16;98368.00;1789386;79;21684;-63
2021/01/14 09:21:47;;;;;;;16.15;13.28;;;;;;;8.61;47.13;98367.30;1785691;77;21577;-63
2021/01/14 09:24:16;;;;;;;16.97;13.18;;;;;;;8.61;47.13;98365.47;1794046;77;21684;-64
2021/01/14 09:26:44;;;;;;;17.20;14.00;;;;;;;8.62;47.16;98371.09;1799986;78;21645;-64
2021/01/14 09:29:15;;;;;;;15.23;12.75;;;;;;;8.64;47.14;98365.61;1769450;79;21445;-66
2021/01/14 09:31:43;;;;;;;16.62;12.93;;;;;;;8.64;47.12;98369.07;1800043;78;21169;-66
2021/01/14 09:34:10;;;;;;;16.17;13.53;;;;;;;8.65;47.11;98365.43;1787103;79;21149;-67
2021/01/14 09:36:38;;;;;;;14.58;12.63;;;;;;;8.66;47.08;98366.24;1788571;78;21159;-66
2021/01/14 09:39:14;;;;;;;15.85;13.50;;;;;;;8.67;47.07;98373.16;1809655;77;21126;-65
2021/01/14 09:41:41;;;;;;;17.50;13.83;;;;;;;8.69;47.06;98367.68;1777208;79;21801;-65
2021/01/14 09:44:14;;;;;;;18.35;14.00;;;;;;;8.69;47.04;98368.49;1790170;78;21304;-66
2021/01/14 09:46:45;;;;;;;18.57;14.47;;;;;;;8.69;47.03;98372.46;1800815;78;21205;-66
2021/01/14 09:49:15;;;;;;;16.93;12.88;;;;;;;8.70;47.00;98371.98;1792120;79;21126;-66
2021/01/14 09:51:46;;;;;;;17.62;14.25;;;;;;;8.69;47.02;98368.49;1798643;78;21144;-65
2021/01/14 09:54:15;;;;;;;16.85;13.28;;;;;;;8.71;47.02;98372.28;1801826;78;21573;-65
2021/01/14 09:56:56;;;;;;;16.12;13.43;;;;;;;8.71;47.01;98367.83;1807357;79;21137;-63
2021/01/14 09:59:43;;;;;;;16.77;13.05;;;;;;;8.71;47.02;98366.50;1795803;79;21557;-63
2021/01/14 10:02:29;;;;;;;16.93;13.20;;;;;;;8.71;47.01;98369.63;1807946;79;21156;-63
2021/01/14 10:05:07;;;;;;;16.97;13.08;;;;;;;8.70;47.03;98366.69;1762665;79;21146;-66
2021/01/14 10:07:36;;;;;;;16.93;13.78;;;;;;;8.70;47.02;98366.69;1802283;77;22237;-65
2021/01/14 10:10:06;;;;;;;16.37;13.08;;;;;;;8.70;47.02;98363.52;1796046;79;21595;-66
2021/01/14 10:12:34;;;;;;;18.70;14.45;;;;;;;8.70;47.03;98358.23;1795248;79;21412;-66
2021/01/14 10:15:15;;;;;;;18.07;13.62;;;;;;;8.72;47.01;98352.75;1788948;79;21612;-65
2021/01/14 10:17:43;;;;;;;17.62;13.65;;;;;;;8.72;47.00;98357.53;1785233;79;21134;-63
2021/01/14 10:20:12;;;;;;;17.20;13.70;;;;;;;8.72;47.01;98361.50;1800801;77;22526;-63
2021/01/14 10:22:48;;;;;;;18.50;14.55;;;;;;;8.73;47.01;98365.80;1804325;77;22593;-63
2021/01/14 10:25:17;;;;;;;19.55;15.23;;;;;;;8.75;46.99;98362.95;1792185;79;21436;-61
2021/01/14 10:28:01;;;;;;;17.52;13.93;;;;;;;8.74;46.98;98354.19;1794412;79;21602;-63
2021/01/14 10:30:30;;;;;;;19.25;14.90;;;;;;;8.74;46.99;98358.16;1792347;79;21162;-61
2021/01/14 10:33:03;;;;;;;17.62;14.28;;;;;;;8.74;46.96;98356.03;1797732;79;21358;-63
2021/01/14 10:35:32;;;;;;;19.65;15.20;;;;;;;8.73;46.96;98352.57;1799240;79;21201;-63
2021/01/14 10:38:12;;;;;;;20.57;16.05;;;;;;;8.74;46.96;98348.08;1793600;79;21161;-62
2021/01/14 10:40:47;;;;;;;19.92;15.20;;;;;;;8.74;46.99;98346.25;1802000;79;21166;-65
2021/01/14 10:43:28;;;;;;;20.57;15.98;;;;;;;8.75;46.98;98341.28;1784287;79;22322;-63
2021/01/14 10:45:55;;;;;;;19.00;15.60;;;;;;;8.75;46.96;98339.95;1800523;78;21250;-64
2021/01/14 10:48:23;;;;;;;21.25;15.75;;;;;;;8.74;46.98;98339.63;1797503;79;21150;-65
2021/01/14 10:50:52;;;;;;;18.15;15.83;;;;;;;8.75;46.96;98341.77;1783890;79;21162;-63
2021/01/14 10:53:30;;;;;;;21.45;17.00;;;;;;;8.75;46.95;98338.63;1790226;78;21107;-65
2021/01/14 10:56:07;;;;;;;17.92;15.15;;;;;;;8.75;46.94;98338.63;1799514;79;21177;-63
2021/01/14 10:58:38;;;;;;;22.17;17.42;;;;;;;8.75;46.98;98337.31;1790059;79;21372;-64
2021/01/14 11:04:06;;;;;;;20.05;15.00;;;;;;;8.78;46.99;98328.97;1742908;80;28312;-64
2021/01/14 11:06:37;;;;;;;18.90;15.72;;;;;;;8.74;47.01;98329.55;1719120;82;21135;-63
2021/01/14 11:09:07;;;;;;;20.45;15.65;;;;;;;8.73;47.00;98326.09;1714448;81;21387;-65
2021/01/14 11:11:35;;;;;;;21.73;17.30;;;;;;;8.73;47.01;98326.58;1710274;82;21210;-65
2021/01/14 11:14:03;;;;;;;20.05;15.43;;;;;;;8.74;47.01;98324.25;1716181;82;21219;-64
2021/01/14 11:16:30;;;;;;;20.05;16.05;;;;;;;8.74;47.02;98322.93;1718771;82;21164;-65
2021/01/14 11:18:58;;;;;;;21.35;16.40;;;;;;;8.74;46.99;98315.80;1721818;82;21172;-64
2021/01/14 11:21:29;;;;;;;20.55;17.17;;;;;;;8.73;47.02;98320.80;1722031;82;21593;-64
2021/01/14 11:23:57;;;;;;;21.15;16.55;;;;;;;8.74;47.01;98321.61;1715244;82;21207;-64
2021/01/14 11:26:24;;;;;;;21.77;17.17;;;;;;;8.74;47.00;98321.09;1713814;81;21621;-63
2021/01/14 11:28:52;;;;;;;21.77;17.62;;;;;;;8.75;47.01;98317.93;1715868;81;21140;-64
2021/01/14 11:31:21;;;;;;;20.75;16.48;;;;;;;8.75;47.01;98320.58;1715107;82;21155;-63
2021/01/14 11:33:48;;;;;;;19.85;17.25;;;;;;;8.74;47.00;98315.80;1715231;82;21381;-63
2021/01/14 11:36:20;;;;;;;21.40;16.95;;;;;;;8.74;47.02;98314.47;1708621;82;21120;-64
2021/01/14 11:38:48;;;;;;;22.32;17.15;;;;;;;8.74;47.01;98317.13;1706370;82;21120;-65
2021/01/14 11:41:17;;;;;;;21.37;17.30;;;;;;;8.75;47.03;98324.07;1710169;82;21436;-66
2021/01/14 11:43:45;;;;;;;20.60;16.80;;;;;;;8.75;47.02;98325.39;1710197;82;21154;-63
2021/01/14 11:46:20;;;;;;;23.90;18.07;;;;;;;8.77;47.05;98325.18;1719456;82;21387;-65
2021/01/14 11:48:47;;;;;;;22.17;17.07;;;;;;;8.75;47.02;98316.13;1728484;82;21162;-65
2021/01/14 11:51:15;;;;;;;21.60;16.62;;;;;;;8.76;47.02;98316.94;1721129;82;21651;-65
2021/01/14 11:53:43;;;;;;;22.35;17.30;;;;;;;8.76;47.04;98314.29;1709810;82;21166;-62
2021/01/14 11:56:10;;;;;;;21.62;18.52;;;;;;;8.76;47.07;98312.45;1708891;82;21250;-63
2021/01/14 11:58:37;;;;;;;20.80;16.87;;;;;;;8.76;47.05;98312.45;1709150;82;21225;-63
2021/01/14 12:01:05;;;;;;;22.65;17.82;;;;;;;8.77;47.05;98311.94;1709075;82;21186;-64